Latest Weather Observations for Truscott

IDW60801

Issued at 6:02 pm WST Sunday 2 August 2015 (issued every 30 minutes, with the page automatically refreshed every 10 minutes)

About weather observations | Map of weather stations | Latest weather observations for WA | Other Formats
Station Details ID: 001020 Name: TRUSCOTT Lat: -14.09 Lon: 126.39 Height: 51.0 m
Data from the previous 72 hours. | See also: Recent months at Truscott
Date/Time
WST
Temp
°C
App
Temp
°C
Dew
Point
Rel
Hum
%
Delta-T
°C
Wind Press
QNH
hPa
Press
MSL
hPa
Rain
since 9 am
mm
Dir
 
Spd
km/h
Gust
km/h
Spd
kts
Gust
kts
02/06:00pm 24.5 25.8 19.3 73 3.3 N 11 13 6 7 1014.0 1014.1 0.0
02/05:30pm 25.0 25.7 18.0 65 4.4 N 11 13 6 7 1014.0 - 0.0
02/05:00pm 26.0 25.5 17.0 57 5.6 N 15 - 8 - 1013.0 - 0.0
02/04:30pm 27.0 25.8 16.0 51 6.8 N 17 - 9 - 1013.0 - 0.0
02/04:00pm 28.0 26.0 15.0 45 7.9 NNE 19 - 10 - 1013.0 - 0.0
02/03:30pm 29.0 26.7 14.0 39 9.0 NNE 19 - 10 - 1013.0 - 0.0
02/03:00pm 29.2 26.0 11.3 33 10.3 N 19 - 10 - 1013.0 1012.7 0.0
02/02:30pm 31.0 27.5 11.0 29 11.6 NNE 20 - 11 - 1013.0 - 0.0
02/02:00pm 31.0 28.1 11.0 29 11.6 N 17 - 9 - 1013.0 - 0.0
02/01:30pm 32.0 29.3 13.0 31 11.4 N 19 - 10 - 1013.0 - 0.0
02/01:00pm 31.0 29.4 14.0 35 10.3 N 15 - 8 - 1014.0 - 0.0
02/12:30pm 33.0 29.7 8.0 21 13.9 E 15 - 8 - 1014.0 - 0.0
02/12:00pm 32.8 29.6 8.3 22 13.7 E 15 - 8 - 1014.0 1014.3 0.0
02/11:30am 32.0 28.7 8.0 22 13.3 ENE 15 - 8 - 1015.0 - 0.0
02/11:00am 32.0 27.9 8.0 22 13.3 E 19 - 10 - 1015.0 - 0.0
02/10:30am 32.0 29.7 9.0 24 12.9 ESE 11 - 6 - 1016.0 - 0.0
02/10:00am 31.0 30.2 11.0 29 11.6 WNW 6 - 3 - 1016.0 - 0.0
02/09:30am 30.0 29.0 11.0 31 10.9 SSW 7 - 4 - 1016.0 - 0.0
02/09:00am 28.5 27.5 11.1 34 10.0 SSW 7 - 4 - 1016.0 1016.1 0.0
02/08:30am 28.0 27.0 11.0 34 9.7 S 7 - 4 - 1016.0 - 0.0
02/08:00am 26.0 25.8 13.0 44 7.6 SW 6 - 3 - 1016.0 - 0.0
02/07:30am 25.0 23.9 12.0 44 7.4 SSW 9 - 5 - 1015.0 - 0.0
02/07:00am 24.0 22.5 12.0 47 6.8 SW 11 - 6 - 1015.0 - 0.0
02/06:30am 22.0 20.9 12.0 53 5.6 SW 9 - 5 - 1015.0 - 0.0
02/06:00am 20.9 21.2 15.9 73 3.0 SW 9 - 5 - 1015.0 1014.7 0.0
02/05:30am 19.0 20.1 17.0 88 1.2 SW 7 - 4 - 1014.0 - 0.0
02/05:00am 19.0 20.3 17.0 88 1.2 S 6 - 3 - 1014.0 - 0.0
02/04:30am 19.0 20.3 17.0 88 1.2 SSE 6 - 3 - 1014.0 - 0.0
02/04:00am 20.0 22.8 18.0 88 1.2 CALM 0 - 0 - 1014.0 - 0.0
02/03:30am 20.0 21.7 18.0 88 1.2 SW 6 - 3 - 1014.0 - 0.0
02/03:00am 21.1 22.5 17.7 81 2.1 SW 7 - 4 - 1014.0 1013.9 0.0
02/02:30am 20.0 21.5 18.0 88 1.2 SW 7 - 4 - 1014.0 - 0.0
02/02:00am 21.0 24.3 19.0 88 1.3 CALM 0 - 0 - 1014.0 - 0.0
02/01:30am 21.0 22.9 19.0 88 1.3 SSW 7 - 4 - 1015.0 - 0.0
02/01:00am 21.0 23.9 19.0 88 1.3 SW 2 - 1 - 1015.0 - 0.0
02/12:30am 21.0 22.7 18.0 83 1.9 SW 6 - 3 - 1015.0 - 0.0
02/12:00am 21.3 23.9 18.3 83 1.9 SW 2 - 1 - 1015.0 1015.0 0.0
 
Date/Time
WST
Temp
°C
App
Temp
°C
Dew
Point
Rel
Hum
%
Delta-T
°C
Wind Press
QNH
hPa
Press
MSL
hPa
Rain
since 9 am
mm
Dir
 
Spd
km/h
Gust
km/h
Spd
kts
Gust
kts
01/11:30pm 21.0 23.4 17.0 78 2.4 CALM 0 - 0 - 1015.0 - 0.0
01/11:00pm 21.0 23.4 17.0 78 2.4 CALM 0 - 0 - 1015.0 - 0.0
01/10:30pm 22.0 24.4 17.0 73 3.1 CALM 0 - 0 - 1015.0 - 0.0
01/10:00pm 22.0 24.8 18.0 78 2.5 CALM 0 - 0 - 1015.0 - 0.0
01/09:30pm 22.0 24.8 18.0 78 2.5 CALM 0 - 0 - 1015.0 - 0.0
01/09:00pm 21.9 24.6 17.7 77 2.6 CALM 0 - 0 - 1015.0 1014.8 0.0
01/08:30pm 22.0 24.4 17.0 73 3.1 CALM 0 - 0 - 1015.0 - 0.0
01/08:00pm 22.0 24.4 17.0 73 3.1 CALM 0 - 0 - 1015.0 - 0.0
01/07:30pm 23.0 23.9 15.0 60 4.8 SSW 4 - 2 - 1014.0 - 0.0
01/07:00pm 24.0 26.4 17.0 65 4.3 CALM 0 - 0 - 1014.0 - 0.0
01/06:30pm 24.0 26.4 17.0 65 4.3 CALM 0 - 0 - 1013.0 - 0.0
01/06:00pm 25.3 27.3 15.9 56 5.7 CALM 0 - 0 - 1013.0 1013.0 0.0
01/05:30pm 27.0 27.5 14.0 44 7.7 NNW 4 - 2 - 1013.0 - 0.0
01/05:00pm 29.0 28.9 14.0 39 9.0 WNW 7 - 4 - 1012.0 - 0.0
01/04:30pm 30.0 29.6 13.0 35 10.1 WNW 7 - 4 - 1012.0 - 0.0
01/04:00pm 30.0 28.5 12.0 33 10.5 WNW 11 - 6 - 1012.0 - 0.0
01/03:30pm 31.0 29.9 12.0 31 11.2 NW 9 - 5 - 1012.0 - 0.0
01/03:00pm 29.6 27.2 10.2 30 11.0 NNW 13 - 7 - 1012.0 1012.1 0.0
01/02:30pm 30.0 27.8 12.0 33 10.5 NW 15 - 8 - 1012.0 - 0.0
01/02:00pm 30.0 27.4 12.0 33 10.5 NNW 17 - 9 - 1013.0 - 0.0
01/01:00pm 29.0 26.7 14.0 39 9.0 NNW 19 - 10 - 1013.0 - 0.0
01/12:30pm 30.0 27.0 12.0 33 10.5 NNW 19 - 10 - 1014.0 - 0.0
01/12:00pm 31.0 28.5 10.9 29 11.6 NNW 15 - 8 - 1014.0 1014.1 0.0
01/11:30am 30.0 28.2 12.0 33 10.5 N 13 - 7 - 1015.0 - 0.0
01/11:00am 31.0 29.6 11.0 29 11.6 NW 9 - 5 - 1015.0 - 0.0
01/10:30am 29.0 27.7 10.0 30 10.7 W 7 - 4 - 1016.0 - 0.0
01/10:00am 29.0 27.3 10.0 30 10.7 SSW 9 - 5 - 1016.0 - 0.0
01/09:30am 28.0 26.2 11.0 34 9.7 SW 11 - 6 - 1016.0 - 0.0
01/09:00am 27.4 25.6 11.0 36 9.3 SW 11 - 6 - 1016.0 1016.4 0.0
01/08:30am 26.0 25.5 12.0 41 8.0 SSW 6 - 3 - 1016.0 - 0.0
01/08:00am 25.0 24.2 13.0 47 7.0 SSW 9 - 5 - 1016.0 - 0.0
01/07:30am 23.0 21.9 13.0 53 5.8 SW 11 - 6 - 1016.0 - 0.0
01/07:00am 22.0 20.9 13.0 56 5.2 SSW 11 - 6 - 1015.0 - 0.0
01/06:30am 21.0 20.2 13.0 60 4.6 SSW 9 - 5 - 1015.0 - 0.0
01/06:00am 19.0 19.1 12.7 67 3.5 SSW 4 - 2 - 1015.0 1014.9 0.0
01/05:30am 20.0 19.6 13.0 64 4.0 SSW 7 - 4 - 1015.0 - 0.0
01/05:00am 20.0 19.2 13.0 64 4.0 SW 9 - 5 - 1014.0 - 0.0
01/04:30am 20.0 18.9 13.0 64 4.0 SSW 11 - 6 - 1014.0 - 0.0
01/04:00am 21.0 20.2 13.0 60 4.6 SSW 9 - 5 - 1014.0 - 0.0
01/03:53am 21.0 19.9 13.0 60 4.6 SSW 11 - 6 - 1014.0 - 0.0
01/03:38am 21.0 20.6 14.0 64 4.1 SSW 9 - 5 - 1014.0 - 0.0
01/03:30am 21.0 20.2 14.0 64 4.1 SSW 11 - 6 - 1014.0 - 0.0
01/03:00am 20.7 20.6 15.0 70 3.4 SW 9 - 5 - 1014.0 1013.9 0.0
01/02:30am 19.0 20.2 15.0 77 2.3 SW 2 - 1 - 1014.0 - 0.0
01/02:00am 21.0 20.9 15.0 68 3.5 SW 9 - 5 - 1014.0 - 0.0
01/01:30am 21.0 21.3 16.0 73 3.0 SSW 9 - 5 - 1014.0 - 0.0
01/01:26am 21.0 21.7 16.0 73 3.0 SSW 7 - 4 - 1014.0 - 0.0
01/01:11am 20.0 20.3 16.0 78 2.4 SSW 9 - 5 - 1014.0 - 0.0
01/01:00am 20.0 21.1 17.0 83 1.8 SSW 7 - 4 - 1014.0 - 0.0
01/12:30am 20.0 21.5 18.0 88 1.2 S 7 - 4 - 1014.0 - 0.0
01/12:25am 20.0 21.5 18.0 88 1.2 S 7 - 4 - 1014.0 - 0.0
01/12:15am 20.0 21.5 18.0 88 1.2 S 7 - 4 - 1014.0 - 0.0
01/12:00am 20.0 21.6 17.8 87 1.4 SSW 6 - 3 - 1014.0 1014.3 0.0
 
Date/Time
WST
Temp
°C
App
Temp
°C
Dew
Point
Rel
Hum
%
Delta-T
°C
Wind Press
QNH
hPa
Press
MSL
hPa
Rain
since 9 am
mm
Dir
 
Spd
km/h
Gust
km/h
Spd
kts
Gust
kts
31/11:30pm 20.0 21.7 18.0 88 1.2 S 6 - 3 - 1014.0 - 0.0
31/11:00pm 20.0 21.7 18.0 88 1.2 SSW 6 - 3 - 1014.0 - 0.0
31/10:30pm 20.0 21.7 18.0 88 1.2 SSW 6 - 3 - 1015.0 - 0.0
31/10:00pm 21.0 22.7 18.0 83 1.9 SW 6 - 3 - 1015.0 - 0.0
31/09:30pm 21.0 22.7 18.0 83 1.9 SW 6 - 3 - 1015.0 - 0.0
31/09:00pm 20.6 21.9 17.0 80 2.2 ESE 6 - 3 - 1014.0 1014.6 0.0
31/08:30pm 22.0 23.6 17.0 73 3.1 S 4 - 2 - 1014.0 - 0.0
31/08:00pm 23.0 24.3 17.0 69 3.7 NE 6 - 3 - 1014.0 - 0.0
31/07:30pm 24.0 25.1 17.0 65 4.3 ENE 7 - 4 - 1014.0 - 0.0
31/07:11pm 24.0 24.7 16.0 61 4.9 ENE 7 - 4 - 1014.0 - 0.0
31/07:00pm 24.0 24.3 16.0 61 4.9 NE 9 - 5 - 1014.0 - 0.0
31/06:58pm 25.0 25.3 16.0 57 5.5 NE 9 - 5 - 1014.0 - 0.0
31/06:30pm 25.0 24.9 16.0 57 5.5 NE 11 - 6 - 1013.0 - 0.0
31/06:00pm 25.5 24.7 16.1 56 5.8 NE 15 - 8 - 1013.0 1013.0 0.0
31/05:30pm 26.0 25.2 16.0 54 6.1 NNE 15 - 8 - 1013.0 - 0.0
31/05:18pm 26.0 24.8 15.0 50 6.6 NNE 15 - 8 - 1013.0 - 0.0
31/05:05pm 27.0 25.8 15.0 47 7.3 NNE 15 - 8 - 1012.0 - 0.0
31/05:00pm 27.0 25.4 15.0 47 7.3 NNE 17 - 9 - 1012.0 - 0.0
31/04:30pm 28.0 25.7 13.0 39 8.8 NNE 17 - 9 - 1012.0 - 0.0
31/04:00pm 29.0 26.3 13.0 37 9.5 NNE 19 - 10 - 1012.0 - 0.0
31/03:30pm 30.0 26.8 12.0 33 10.5 NNE 20 - 11 - 1012.0 - 0.0
31/03:00pm 30.5 26.5 8.3 25 12.3 ENE 19 - 10 - 1012.0 1011.8 0.0
31/02:30pm 31.0 26.9 8.0 24 12.7 NE 19 - 10 - 1012.0 - 0.0
31/02:00pm 31.0 27.3 8.0 24 12.7 NE 17 - 9 - 1012.0 - 0.0
31/01:30pm 31.0 26.9 8.0 24 12.7 NE 19 - 10 - 1013.0 - 0.0
31/01:00pm 31.0 26.7 7.0 22 13.0 ENE 19 - 10 - 1013.0 - 0.0
31/12:30pm 31.0 27.3 8.0 24 12.7 NE 17 - 9 - 1014.0 - 0.0
31/12:00pm 31.8 27.8 6.8 21 13.6 E 17 - 9 - 1014.0 1014.1 0.0
31/11:30am 31.0 26.7 7.0 22 13.0 E 19 - 10 - 1014.0 - 0.0
31/11:00am 30.0 25.1 7.0 23 12.4 E 22 - 12 - 1015.0 - 0.0
31/10:30am 30.0 25.1 7.0 23 12.4 E 22 - 12 - 1015.0 - 0.0
31/10:00am 30.0 25.5 6.0 22 12.7 E 19 - 10 - 1015.0 - 0.0
31/09:30am 30.0 25.9 6.0 22 12.7 ESE 17 - 9 - 1016.0 - 0.0
31/09:00am 28.8 24.2 5.6 23 12.1 ESE 19 - 10 - 1016.0 1016.1 0.0
31/08:30am 28.0 24.6 6.0 24 11.5 ESE 13 - 7 - 1016.0 - 0.0
31/08:00am 27.0 24.0 6.0 26 10.9 SE 11 - 6 - 1016.0 - 0.0
31/07:30am 26.0 23.0 6.0 27 10.4 SE 11 - 6 - 1016.0 - 0.0
31/07:00am 24.0 21.0 6.0 31 9.2 SE 11 - 6 - 1015.0 - 0.0
31/06:30am 23.0 20.0 6.0 33 8.6 SSE 11 - 6 - 1015.0 - 0.0
31/06:00am 22.0 19.7 5.8 35 8.1 SE 7 - 4 - 1015.0 1014.9 0.0
31/05:30am 23.0 20.4 6.0 33 8.6 SE 9 - 5 - 1014.0 - 0.0
31/05:00am 23.0 20.0 6.0 33 8.6 SSE 11 - 6 - 1014.0 - 0.0
31/04:30am 23.0 20.4 6.0 33 8.6 SSE 9 - 5 - 1014.0 - 0.0
31/04:00am 22.0 19.6 7.0 38 7.7 SSE 9 - 5 - 1014.0 - 0.0
31/03:30am 22.0 20.1 9.0 43 6.9 SSE 9 - 5 - 1014.0 - 0.0
31/03:00am 22.2 20.2 8.7 42 7.2 SSE 9 - 5 - 1014.0 1014.6 0.0
31/02:30am 23.0 21.1 9.0 41 7.5 SSE 9 - 5 - 1014.0 - 0.0
31/02:00am 23.0 21.1 9.0 41 7.5 SSE 9 - 5 - 1015.0 - 0.0
31/01:30am 23.0 21.1 9.0 41 7.5 SSE 9 - 5 - 1015.0 - 0.0
31/01:00am 23.0 21.1 9.0 41 7.5 SSE 9 - 5 - 1015.0 - 0.0
31/12:50am 23.0 21.1 9.0 41 7.5 SSE 9 - 5 - 1015.0 - 0.0
31/12:30am 23.0 21.3 10.0 43 7.1 SSE 9 - 5 - 1015.0 - 0.0
31/12:00am 23.0 21.7 10.1 44 7.1 SE 7 - 4 - 1016.0 1015.7 0.0
 
Date/Time
WST
Temp
°C
App
Temp
°C
Dew
Point
Rel
Hum
%
Delta-T
°C
Wind Press
QNH
hPa
Press
MSL
hPa
Rain
since 9 am
mm
Dir
 
Spd
km/h
Gust
km/h
Spd
kts
Gust
kts
30/11:30pm 23.0 21.6 11.0 46 6.7 SE 9 - 5 - 1016.0 - 0.0
30/11:00pm 23.0 22.0 11.0 46 6.7 ESE 7 - 4 - 1016.0 - 0.0
30/10:30pm 23.0 22.3 12.0 50 6.2 ESE 7 - 4 - 1016.0 - 0.0
30/10:00pm 23.0 22.6 13.0 53 5.8 ESE 7 - 4 - 1016.0 - 0.0
30/09:30pm 24.0 23.6 14.0 53 5.9 E 9 - 5 - 1016.0 - 0.0
30/09:00pm 24.1 24.1 15.1 57 5.4 E 9 - 5 - 1016.0 1016.1 0.0
30/08:30pm 25.0 24.9 15.0 53 6.0 E 9 - 5 - 1016.0 - 0.0
30/08:00pm 25.0 24.2 13.0 47 7.0 ENE 9 - 5 - 1016.0 - 0.0
30/07:30pm 26.0 25.2 13.0 44 7.6 ENE 9 - 5 - 1015.0 - 0.0
30/07:00pm 26.0 24.5 13.0 44 7.6 ENE 13 - 7 - 1015.0 - 0.0
30/06:30pm 26.0 25.2 13.0 44 7.6 NE 9 - 5 - 1014.0 - 0.0

Other Formats:

Comma delimited format used in spreadsheet applications
http://www.bom.gov.au/fwo/IDW60801/IDW60801.95101.axf

JavaScript Object Notation format (JSON) in row-major order
http://www.bom.gov.au/fwo/IDW60801/IDW60801.95101.json